sensor_id;sensor_type;location;lat;lon;timestamp;temperature;humidity
20856;DHT22;63058;49.424;8.420;2022-12-31T00:01:54;15.90;99.90
20856;DHT22;63058;49.424;8.420;2022-12-31T00:04:20;15.80;99.90
20856;DHT22;63058;49.424;8.420;2022-12-31T00:06:46;15.90;99.90
20856;DHT22;63058;49.424;8.420;2022-12-31T00:09:12;15.80;99.90
20856;DHT22;63058;49.424;8.420;2022-12-31T00:11:39;15.80;99.90
20856;DHT22;63058;49.424;8.420;2022-12-31T00:14:05;15.90;99.90
20856;DHT22;63058;49.424;8.420;2022-12-31T00:16:36;15.80;99.90
20856;DHT22;63058;49.424;8.420;2022-12-31T00:19:03;15.70;99.90
20856;DHT22;63058;49.424;8.420;2022-12-31T00:21:31;15.70;99.90
20856;DHT22;63058;49.424;8.420;2022-12-31T00:23:57;15.70;99.90
20856;DHT22;63058;49.424;8.420;2022-12-31T00:26:25;15.70;99.90
20856;DHT22;63058;49.424;8.420;2022-12-31T00:28:54;15.60;99.90
20856;DHT22;63058;49.424;8.420;2022-12-31T00:33:48;15.60;99.90
20856;DHT22;63058;49.424;8.420;2022-12-31T00:38:42;15.60;99.90
20856;DHT22;63058;49.424;8.420;2022-12-31T00:41:10;15.40;99.90
20856;DHT22;63058;49.424;8.420;2022-12-31T00:43:37;15.60;99.90
20856;DHT22;63058;49.424;8.420;2022-12-31T00:46:04;15.60;99.90
20856;DHT22;63058;49.424;8.420;2022-12-31T00:48:34;15.60;99.90
20856;DHT22;63058;49.424;8.420;2022-12-31T00:51:02;15.70;99.90
20856;DHT22;63058;49.424;8.420;2022-12-31T00:53:28;15.60;99.90
20856;DHT22;63058;49.424;8.420;2022-12-31T00:56:05;15.60;99.90
20856;DHT22;63058;49.424;8.420;2022-12-31T00:58:32;15.60;99.90
20856;DHT22;63058;49.424;8.420;2022-12-31T01:04:05;15.60;99.90
20856;DHT22;63058;49.424;8.420;2022-12-31T01:06:34;15.70;99.90
20856;DHT22;63058;49.424;8.420;2022-12-31T01:09:00;15.70;99.90
20856;DHT22;63058;49.424;8.420;2022-12-31T01:11:25;15.70;99.90
20856;DHT22;63058;49.424;8.420;2022-12-31T01:14:04;15.80;99.90
20856;DHT22;63058;49.424;8.420;2022-12-31T01:16:42;15.80;99.90
20856;DHT22;63058;49.424;8.420;2022-12-31T01:19:14;15.80;99.90
20856;DHT22;63058;49.424;8.420;2022-12-31T01:21:41;15.90;99.90
20856;DHT22;63058;49.424;8.420;2022-12-31T01:24:11;15.90;99.90
20856;DHT22;63058;49.424;8.420;2022-12-31T01:26:37;16.00;99.90
20856;DHT22;63058;49.424;8.420;2022-12-31T01:29:12;16.00;99.90
20856;DHT22;63058;49.424;8.420;2022-12-31T01:31:39;16.00;99.90
20856;DHT22;63058;49.424;8.420;2022-12-31T01:34:05;16.00;99.90
20856;DHT22;63058;49.424;8.420;2022-12-31T01:36:32;16.00;99.90
20856;DHT22;63058;49.424;8.420;2022-12-31T01:39:03;16.00;99.90
20856;DHT22;63058;49.424;8.420;2022-12-31T01:41:43;16.10;99.90
20856;DHT22;63058;49.424;8.420;2022-12-31T01:46:48;16.10;99.90
20856;DHT22;63058;49.424;8.420;2022-12-31T01:54:35;16.10;99.90
20856;DHT22;63058;49.424;8.420;2022-12-31T01:57:29;16.20;99.90
20856;DHT22;63058;49.424;8.420;2022-12-31T02:00:05;16.20;99.90
20856;DHT22;63058;49.424;8.420;2022-12-31T02:02:34;16.30;99.90
20856;DHT22;63058;49.424;8.420;2022-12-31T02:07:58;16.30;99.90
20856;DHT22;63058;49.424;8.420;2022-12-31T02:10:30;16.40;99.90
20856;DHT22;63058;49.424;8.420;2022-12-31T02:12:59;16.40;99.90
20856;DHT22;63058;49.424;8.420;2022-12-31T02:38:13;16.60;99.90
20856;DHT22;63058;49.424;8.420;2022-12-31T02:40:43;16.70;99.90
20856;DHT22;63058;49.424;8.420;2022-12-31T02:43:10;16.70;99.90
20856;DHT22;63058;49.424;8.420;2022-12-31T02:45:49;16.70;99.90
20856;DHT22;63058;49.424;8.420;2022-12-31T02:48:36;16.70;99.90
20856;DHT22;63058;49.424;8.420;2022-12-31T02:51:32;16.80;99.90
20856;DHT22;63058;49.424;8.420;2022-12-31T02:59:22;16.80;99.90
20856;DHT22;63058;49.424;8.420;2022-12-31T03:02:14;16.90;99.90
20856;DHT22;63058;49.424;8.420;2022-12-31T03:04:55;16.80;99.90
20856;DHT22;63058;49.424;8.420;2022-12-31T03:07:33;17.00;99.90
20856;DHT22;63058;49.424;8.420;2022-12-31T03:10:02;17.00;99.90
20856;DHT22;63058;49.424;8.420;2022-12-31T03:12:43;17.00;99.90
20856;DHT22;63058;49.424;8.420;2022-12-31T03:18:10;17.00;99.90
20856;DHT22;63058;49.424;8.420;2022-12-31T03:20:48;17.00;99.90
20856;DHT22;63058;49.424;8.420;2022-12-31T03:23:35;17.00;99.90
20856;DHT22;63058;49.424;8.420;2022-12-31T03:26:03;17.10;99.90
20856;DHT22;63058;49.424;8.420;2022-12-31T03:28:42;17.10;99.90
20856;DHT22;63058;49.424;8.420;2022-12-31T03:31:12;17.10;99.90
20856;DHT22;63058;49.424;8.420;2022-12-31T03:33:43;17.20;99.90
20856;DHT22;63058;49.424;8.420;2022-12-31T03:36:13;17.20;99.90
20856;DHT22;63058;49.424;8.420;2022-12-31T03:38:45;17.20;99.90
20856;DHT22;63058;49.424;8.420;2022-12-31T03:41:11;17.20;99.90
20856;DHT22;63058;49.424;8.420;2022-12-31T03:43:37;17.20;99.90
20856;DHT22;63058;49.424;8.420;2022-12-31T03:46:02;17.20;99.90
20856;DHT22;63058;49.424;8.420;2022-12-31T03:48:32;17.30;99.90
20856;DHT22;63058;49.424;8.420;2022-12-31T03:51:20;17.30;99.90
20856;DHT22;63058;49.424;8.420;2022-12-31T03:53:45;17.30;99.90
20856;DHT22;63058;49.424;8.420;2022-12-31T03:56:23;17.30;99.90
20856;DHT22;63058;49.424;8.420;2022-12-31T03:58:49;17.30;99.90
20856;DHT22;63058;49.424;8.420;2022-12-31T04:01:15;17.30;99.90
20856;DHT22;63058;49.424;8.420;2022-12-31T04:03:41;17.30;99.90
20856;DHT22;63058;49.424;8.420;2022-12-31T04:06:15;17.30;99.90
20856;DHT22;63058;49.424;8.420;2022-12-31T04:08:50;17.40;99.90
20856;DHT22;63058;49.424;8.420;2022-12-31T04:11:28;17.30;99.90
20856;DHT22;63058;49.424;8.420;2022-12-31T04:13:53;17.40;99.90
20856;DHT22;63058;49.424;8.420;2022-12-31T04:16:19;17.40;99.90
20856;DHT22;63058;49.424;8.420;2022-12-31T04:18:51;17.50;99.90
20856;DHT22;63058;49.424;8.420;2022-12-31T04:21:17;17.40;99.90
20856;DHT22;63058;49.424;8.420;2022-12-31T04:23:48;17.50;99.90
20856;DHT22;63058;49.424;8.420;2022-12-31T04:26:14;17.60;99.90
20856;DHT22;63058;49.424;8.420;2022-12-31T04:29:06;17.60;99.90
20856;DHT22;63058;49.424;8.420;2022-12-31T04:31:32;17.60;99.90
20856;DHT22;63058;49.424;8.420;2022-12-31T04:34:16;17.70;99.90
20856;DHT22;63058;49.424;8.420;2022-12-31T04:36:54;17.70;99.90
20856;DHT22;63058;49.424;8.420;2022-12-31T04:39:29;17.80;99.90
20856;DHT22;63058;49.424;8.420;2022-12-31T04:41:55;17.80;99.90
20856;DHT22;63058;49.424;8.420;2022-12-31T04:44:24;17.80;99.90
20856;DHT22;63058;49.424;8.420;2022-12-31T04:46:49;17.90;99.90
20856;DHT22;63058;49.424;8.420;2022-12-31T04:49:18;18.00;99.90
20856;DHT22;63058;49.424;8.420;2022-12-31T04:51:44;17.90;99.90
20856;DHT22;63058;49.424;8.420;2022-12-31T04:54:15;18.10;99.90
20856;DHT22;63058;49.424;8.420;2022-12-31T04:56:47;18.10;99.90
20856;DHT22;63058;49.424;8.420;2022-12-31T04:59:13;18.10;99.90
20856;DHT22;63058;49.424;8.420;2022-12-31T05:01:38;18.10;99.90
20856;DHT22;63058;49.424;8.420;2022-12-31T05:04:06;18.10;99.90
20856;DHT22;63058;49.424;8.420;2022-12-31T05:06:35;18.20;99.90
20856;DHT22;63058;49.424;8.420;2022-12-31T05:09:01;18.20;99.90
20856;DHT22;63058;49.424;8.420;2022-12-31T05:11:38;18.20;99.90
20856;DHT22;63058;49.424;8.420;2022-12-31T05:14:05;18.30;99.90
20856;DHT22;63058;49.424;8.420;2022-12-31T05:16:30;18.30;99.90
20856;DHT22;63058;49.424;8.420;2022-12-31T05:18:56;18.30;99.90
20856;DHT22;63058;49.424;8.420;2022-12-31T05:21:25;18.30;99.90
20856;DHT22;63058;49.424;8.420;2022-12-31T05:23:51;18.30;99.90
20856;DHT22;63058;49.424;8.420;2022-12-31T05:26:19;18.30;99.90
20856;DHT22;63058;49.424;8.420;2022-12-31T05:28:45;18.30;99.90
20856;DHT22;63058;49.424;8.420;2022-12-31T05:31:11;18.30;99.90
20856;DHT22;63058;49.424;8.420;2022-12-31T05:33:37;18.30;99.90
20856;DHT22;63058;49.424;8.420;2022-12-31T05:36:03;18.30;99.90
20856;DHT22;63058;49.424;8.420;2022-12-31T05:38:29;18.30;99.90
20856;DHT22;63058;49.424;8.420;2022-12-31T05:41:06;18.40;99.90
20856;DHT22;63058;49.424;8.420;2022-12-31T05:43:32;18.40;99.90
20856;DHT22;63058;49.424;8.420;2022-12-31T05:46:04;18.40;99.90
20856;DHT22;63058;49.424;8.420;2022-12-31T05:48:36;18.50;99.90
20856;DHT22;63058;49.424;8.420;2022-12-31T05:51:01;18.50;99.90
20856;DHT22;63058;49.424;8.420;2022-12-31T05:53:27;18.50;99.90
20856;DHT22;63058;49.424;8.420;2022-12-31T05:56:04;18.50;99.90
20856;DHT22;63058;49.424;8.420;2022-12-31T05:58:39;18.60;99.90
20856;DHT22;63058;49.424;8.420;2022-12-31T06:01:13;18.50;99.90
20856;DHT22;63058;49.424;8.420;2022-12-31T06:03:51;18.60;99.90
20856;DHT22;63058;49.424;8.420;2022-12-31T06:06:58;18.50;99.90
20856;DHT22;63058;49.424;8.420;2022-12-31T06:09:29;18.60;99.90
20856;DHT22;63058;49.424;8.420;2022-12-31T06:11:55;18.60;99.90
20856;DHT22;63058;49.424;8.420;2022-12-31T06:14:28;18.60;99.90
20856;DHT22;63058;49.424;8.420;2022-12-31T06:16:57;18.60;99.90
20856;DHT22;63058;49.424;8.420;2022-12-31T06:19:25;18.60;99.90
20856;DHT22;63058;49.424;8.420;2022-12-31T06:21:54;18.60;99.90
20856;DHT22;63058;49.424;8.420;2022-12-31T06:24:19;18.60;99.90
20856;DHT22;63058;49.424;8.420;2022-12-31T06:26:51;18.60;99.90
20856;DHT22;63058;49.424;8.420;2022-12-31T06:29:17;18.60;99.90
20856;DHT22;63058;49.424;8.420;2022-12-31T06:31:48;18.60;99.90
20856;DHT22;63058;49.424;8.420;2022-12-31T06:34:14;18.40;99.90
20856;DHT22;63058;49.424;8.420;2022-12-31T06:36:52;18.50;99.90
20856;DHT22;63058;49.424;8.420;2022-12-31T06:39:21;18.50;99.90
20856;DHT22;63058;49.424;8.420;2022-12-31T06:41:53;18.50;99.90
20856;DHT22;63058;49.424;8.420;2022-12-31T06:44:19;18.50;99.90
20856;DHT22;63058;49.424;8.420;2022-12-31T06:47:07;18.50;99.90
20856;DHT22;63058;49.424;8.420;2022-12-31T06:49:35;18.30;99.90
20856;DHT22;63058;49.424;8.420;2022-12-31T06:52:14;18.40;99.90
20856;DHT22;63058;49.424;8.420;2022-12-31T06:54:47;18.40;99.90
20856;DHT22;63058;49.424;8.420;2022-12-31T06:57:25;18.40;99.90
20856;DHT22;63058;49.424;8.420;2022-12-31T06:59:51;18.30;99.90
20856;DHT22;63058;49.424;8.420;2022-12-31T07:05:45;18.30;99.90
20856;DHT22;63058;49.424;8.420;2022-12-31T07:11:19;18.10;99.90
20856;DHT22;63058;49.424;8.420;2022-12-31T07:14:10;18.40;99.90
20856;DHT22;63058;49.424;8.420;2022-12-31T07:17:19;18.20;99.90
20856;DHT22;63058;49.424;8.420;2022-12-31T07:20:14;18.20;99.90
20856;DHT22;63058;49.424;8.420;2022-12-31T07:22:54;18.10;99.90
20856;DHT22;63058;49.424;8.420;2022-12-31T07:25:20;18.20;99.90
20856;DHT22;63058;49.424;8.420;2022-12-31T07:30:49;18.00;99.90
20856;DHT22;63058;49.424;8.420;2022-12-31T07:33:41;18.00;99.90
20856;DHT22;63058;49.424;8.420;2022-12-31T07:49:44;17.90;99.90
20856;DHT22;63058;49.424;8.420;2022-12-31T07:55:54;17.80;99.90
20856;DHT22;63058;49.424;8.420;2022-12-31T07:59:35;17.80;99.90
20856;DHT22;63058;49.424;8.420;2022-12-31T08:08:50;17.90;99.90
20856;DHT22;63058;49.424;8.420;2022-12-31T08:11:37;17.80;99.90
20856;DHT22;63058;49.424;8.420;2022-12-31T08:14:14;17.90;99.90
20856;DHT22;63058;49.424;8.420;2022-12-31T08:17:18;17.90;99.90
20856;DHT22;63058;49.424;8.420;2022-12-31T08:20:15;17.90;99.90
20856;DHT22;63058;49.424;8.420;2022-12-31T08:29:34;17.90;99.90
20856;DHT22;63058;49.424;8.420;2022-12-31T08:33:03;17.90;99.90
20856;DHT22;63058;49.424;8.420;2022-12-31T08:41:57;18.00;99.90
20856;DHT22;63058;49.424;8.420;2022-12-31T08:51:27;18.00;99.90
20856;DHT22;63058;49.424;8.420;2022-12-31T08:53:56;18.20;99.90
20856;DHT22;63058;49.424;8.420;2022-12-31T09:05:58;18.20;99.90
20856;DHT22;63058;49.424;8.420;2022-12-31T09:09:01;18.40;99.90
20856;DHT22;63058;49.424;8.420;2022-12-31T09:17:52;18.30;99.90
20856;DHT22;63058;49.424;8.420;2022-12-31T09:20:36;18.50;99.90
20856;DHT22;63058;49.424;8.420;2022-12-31T09:23:16;18.50;99.90
20856;DHT22;63058;49.424;8.420;2022-12-31T09:26:18;18.50;99.90
20856;DHT22;63058;49.424;8.420;2022-12-31T09:34:30;18.50;99.90
20856;DHT22;63058;49.424;8.420;2022-12-31T09:37:15;18.60;99.90
20856;DHT22;63058;49.424;8.420;2022-12-31T09:39:46;18.50;99.90
20856;DHT22;63058;49.424;8.420;2022-12-31T10:01:33;18.70;99.90
20856;DHT22;63058;49.424;8.420;2022-12-31T10:04:17;18.70;99.90
20856;DHT22;63058;49.424;8.420;2022-12-31T10:06:53;18.80;99.90
20856;DHT22;63058;49.424;8.420;2022-12-31T10:15:06;19.00;99.90
20856;DHT22;63058;49.424;8.420;2022-12-31T10:21:05;19.10;99.90
20856;DHT22;63058;49.424;8.420;2022-12-31T10:26:25;19.50;99.90
20856;DHT22;63058;49.424;8.420;2022-12-31T10:34:50;20.30;99.90
20856;DHT22;63058;49.424;8.420;2022-12-31T10:37:40;20.60;99.90
20856;DHT22;63058;49.424;8.420;2022-12-31T11:00:22;22.70;99.90
20856;DHT22;63058;49.424;8.420;2022-12-31T11:03:31;23.00;99.90
20856;DHT22;63058;49.424;8.420;2022-12-31T11:12:16;23.70;99.90
20856;DHT22;63058;49.424;8.420;2022-12-31T11:17:47;23.80;99.90
20856;DHT22;63058;49.424;8.420;2022-12-31T11:23:03;23.90;99.90
20856;DHT22;63058;49.424;8.420;2022-12-31T11:34:17;24.00;98.40
20856;DHT22;63058;49.424;8.420;2022-12-31T11:46:22;23.90;99.50
20856;DHT22;63058;49.424;8.420;2022-12-31T11:54:13;24.00;99.90
20856;DHT22;63058;49.424;8.420;2022-12-31T11:56:52;24.10;99.50
20856;DHT22;63058;49.424;8.420;2022-12-31T11:59:21;24.20;99.90
20856;DHT22;63058;49.424;8.420;2022-12-31T12:04:52;24.50;99.30
20856;DHT22;63058;49.424;8.420;2022-12-31T12:07:20;24.50;99.50
20856;DHT22;63058;49.424;8.420;2022-12-31T12:09:51;24.60;99.30
20856;DHT22;63058;49.424;8.420;2022-12-31T12:12:19;24.60;98.50
20856;DHT22;63058;49.424;8.420;2022-12-31T12:14:50;24.60;99.00
20856;DHT22;63058;49.424;8.420;2022-12-31T12:17:28;24.70;98.40
20856;DHT22;63058;49.424;8.420;2022-12-31T12:20:00;24.70;97.60
20856;DHT22;63058;49.424;8.420;2022-12-31T12:22:28;24.70;98.30
20856;DHT22;63058;49.424;8.420;2022-12-31T12:25:11;24.80;98.30
20856;DHT22;63058;49.424;8.420;2022-12-31T12:27:40;24.80;97.10
20856;DHT22;63058;49.424;8.420;2022-12-31T12:30:17;24.80;98.50
20856;DHT22;63058;49.424;8.420;2022-12-31T12:32:51;24.90;97.90
20856;DHT22;63058;49.424;8.420;2022-12-31T12:35:29;24.90;97.50
20856;DHT22;63058;49.424;8.420;2022-12-31T12:38:01;25.00;97.90
20856;DHT22;63058;49.424;8.420;2022-12-31T12:40:28;25.10;99.00
20856;DHT22;63058;49.424;8.420;2022-12-31T12:42:54;25.20;98.60
20856;DHT22;63058;49.424;8.420;2022-12-31T12:45:25;25.40;98.50
20856;DHT22;63058;49.424;8.420;2022-12-31T12:48:30;25.40;97.40
20856;DHT22;63058;49.424;8.420;2022-12-31T12:50:57;25.50;96.40
20856;DHT22;63058;49.424;8.420;2022-12-31T12:53:45;25.60;97.20
20856;DHT22;63058;49.424;8.420;2022-12-31T13:02:34;25.70;95.90
20856;DHT22;63058;49.424;8.420;2022-12-31T13:11:12;25.70;94.50
20856;DHT22;63058;49.424;8.420;2022-12-31T13:19:42;25.20;94.60
20856;DHT22;63058;49.424;8.420;2022-12-31T13:25:35;25.10;93.10
20856;DHT22;63058;49.424;8.420;2022-12-31T13:28:13;24.90;93.50
20856;DHT22;63058;49.424;8.420;2022-12-31T13:30:46;24.80;94.00
20856;DHT22;63058;49.424;8.420;2022-12-31T13:33:19;24.60;92.60
20856;DHT22;63058;49.424;8.420;2022-12-31T13:35:56;24.40;93.70
20856;DHT22;63058;49.424;8.420;2022-12-31T13:38:39;24.10;94.20
20856;DHT22;63058;49.424;8.420;2022-12-31T13:44:34;23.80;94.10
20856;DHT22;63058;49.424;8.420;2022-12-31T13:47:11;23.50;94.20
20856;DHT22;63058;49.424;8.420;2022-12-31T13:52:41;23.10;94.30
20856;DHT22;63058;49.424;8.420;2022-12-31T13:58:09;22.80;94.70
20856;DHT22;63058;49.424;8.420;2022-12-31T14:00:40;22.70;95.10
20856;DHT22;63058;49.424;8.420;2022-12-31T14:06:05;22.40;95.00
20856;DHT22;63058;49.424;8.420;2022-12-31T14:08:34;22.30;96.10
20856;DHT22;63058;49.424;8.420;2022-12-31T14:16:34;22.00;95.20
20856;DHT22;63058;49.424;8.420;2022-12-31T14:26:57;21.60;96.10
20856;DHT22;63058;49.424;8.420;2022-12-31T14:29:40;21.60;95.90
20856;DHT22;63058;49.424;8.420;2022-12-31T14:35:16;21.40;95.90
20856;DHT22;63058;49.424;8.420;2022-12-31T14:37:52;21.30;95.80
20856;DHT22;63058;49.424;8.420;2022-12-31T14:40:50;21.20;96.00
20856;DHT22;63058;49.424;8.420;2022-12-31T14:49:29;21.00;95.90
20856;DHT22;63058;49.424;8.420;2022-12-31T14:54:42;20.90;95.90
20856;DHT22;63058;49.424;8.420;2022-12-31T14:57:22;20.80;96.50
20856;DHT22;63058;49.424;8.420;2022-12-31T14:59:59;20.80;95.80
20856;DHT22;63058;49.424;8.420;2022-12-31T15:02:33;20.70;96.10
20856;DHT22;63058;49.424;8.420;2022-12-31T15:07:38;20.60;96.00
20856;DHT22;63058;49.424;8.420;2022-12-31T15:10:32;20.50;95.90
20856;DHT22;63058;49.424;8.420;2022-12-31T15:24:12;20.10;95.90
20856;DHT22;63058;49.424;8.420;2022-12-31T15:26:50;20.00;95.90
20856;DHT22;63058;49.424;8.420;2022-12-31T15:29:31;19.90;96.00
20856;DHT22;63058;49.424;8.420;2022-12-31T15:32:00;19.80;95.80
20856;DHT22;63058;49.424;8.420;2022-12-31T15:34:30;19.70;96.70
20856;DHT22;63058;49.424;8.420;2022-12-31T15:37:04;19.60;96.60
20856;DHT22;63058;49.424;8.420;2022-12-31T15:41:57;19.50;97.30
20856;DHT22;63058;49.424;8.420;2022-12-31T15:44:48;19.50;97.10
20856;DHT22;63058;49.424;8.420;2022-12-31T15:47:35;19.40;96.70
20856;DHT22;63058;49.424;8.420;2022-12-31T15:50:06;19.30;96.50
20856;DHT22;63058;49.424;8.420;2022-12-31T15:52:42;19.30;97.30
20856;DHT22;63058;49.424;8.420;2022-12-31T15:57:48;19.20;96.70
20856;DHT22;63058;49.424;8.420;2022-12-31T16:00:18;19.10;97.20
20856;DHT22;63058;49.424;8.420;2022-12-31T16:02:44;19.00;97.00
20856;DHT22;63058;49.424;8.420;2022-12-31T16:05:19;18.90;97.30
20856;DHT22;63058;49.424;8.420;2022-12-31T16:07:46;18.90;96.60
20856;DHT22;63058;49.424;8.420;2022-12-31T16:10:22;18.80;97.20
20856;DHT22;63058;49.424;8.420;2022-12-31T16:12:48;18.70;96.90
20856;DHT22;63058;49.424;8.420;2022-12-31T16:15:24;18.60;97.40
20856;DHT22;63058;49.424;8.420;2022-12-31T16:17:59;18.60;96.80
20856;DHT22;63058;49.424;8.420;2022-12-31T16:20:27;18.40;97.00
20856;DHT22;63058;49.424;8.420;2022-12-31T16:22:55;18.40;97.40
20856;DHT22;63058;49.424;8.420;2022-12-31T16:25:27;18.30;97.50
20856;DHT22;63058;49.424;8.420;2022-12-31T16:27:54;18.20;97.50
20856;DHT22;63058;49.424;8.420;2022-12-31T16:34:01;18.10;97.10
20856;DHT22;63058;49.424;8.420;2022-12-31T16:36:51;18.00;97.20
20856;DHT22;63058;49.424;8.420;2022-12-31T16:39:35;17.90;97.40
20856;DHT22;63058;49.424;8.420;2022-12-31T16:42:32;17.80;97.30
20856;DHT22;63058;49.424;8.420;2022-12-31T16:45:23;17.80;97.50
20856;DHT22;63058;49.424;8.420;2022-12-31T16:48:00;17.70;97.60
20856;DHT22;63058;49.424;8.420;2022-12-31T16:50:32;17.60;98.10
20856;DHT22;63058;49.424;8.420;2022-12-31T16:53:10;17.60;98.20
20856;DHT22;63058;49.424;8.420;2022-12-31T16:59:20;17.50;98.20
20856;DHT22;63058;49.424;8.420;2022-12-31T17:02:18;17.50;98.60
20856;DHT22;63058;49.424;8.420;2022-12-31T17:04:49;17.50;98.50
20856;DHT22;63058;49.424;8.420;2022-12-31T17:10:32;17.50;98.80
20856;DHT22;63058;49.424;8.420;2022-12-31T17:13:00;17.50;98.80
20856;DHT22;63058;49.424;8.420;2022-12-31T17:15:39;17.60;99.50
20856;DHT22;63058;49.424;8.420;2022-12-31T17:18:06;17.50;99.40
20856;DHT22;63058;49.424;8.420;2022-12-31T17:20:33;17.60;99.60
20856;DHT22;63058;49.424;8.420;2022-12-31T17:23:07;17.70;99.70
20856;DHT22;63058;49.424;8.420;2022-12-31T17:25:37;17.70;99.00
20856;DHT22;63058;49.424;8.420;2022-12-31T17:28:05;17.70;99.60
20856;DHT22;63058;49.424;8.420;2022-12-31T17:33:35;17.80;99.60
20856;DHT22;63058;49.424;8.420;2022-12-31T17:39:16;17.90;99.40
20856;DHT22;63058;49.424;8.420;2022-12-31T17:41:46;17.90;98.60
20856;DHT22;63058;49.424;8.420;2022-12-31T17:44:31;17.90;99.10
20856;DHT22;63058;49.424;8.420;2022-12-31T17:46:58;17.90;98.40
20856;DHT22;63058;49.424;8.420;2022-12-31T17:49:29;17.80;99.40
20856;DHT22;63058;49.424;8.420;2022-12-31T17:51:55;18.00;99.10
20856;DHT22;63058;49.424;8.420;2022-12-31T17:54:21;18.00;99.00
20856;DHT22;63058;49.424;8.420;2022-12-31T17:56:47;18.00;99.00
20856;DHT22;63058;49.424;8.420;2022-12-31T17:59:17;18.00;98.90
20856;DHT22;63058;49.424;8.420;2022-12-31T18:01:47;17.90;98.50
20856;DHT22;63058;49.424;8.420;2022-12-31T18:04:15;17.90;98.70
20856;DHT22;63058;49.424;8.420;2022-12-31T18:06:45;17.80;98.80
20856;DHT22;63058;49.424;8.420;2022-12-31T18:09:10;17.80;98.80
20856;DHT22;63058;49.424;8.420;2022-12-31T18:11:37;17.70;98.70
20856;DHT22;63058;49.424;8.420;2022-12-31T18:14:03;17.70;98.70
20856;DHT22;63058;49.424;8.420;2022-12-31T18:16:29;17.50;98.80
20856;DHT22;63058;49.424;8.420;2022-12-31T18:18:57;17.60;99.10
20856;DHT22;63058;49.424;8.420;2022-12-31T18:21:28;17.50;99.00
20856;DHT22;63058;49.424;8.420;2022-12-31T18:23:56;17.50;98.60
20856;DHT22;63058;49.424;8.420;2022-12-31T18:26:24;17.50;99.10
20856;DHT22;63058;49.424;8.420;2022-12-31T18:29:04;17.40;99.00
20856;DHT22;63058;49.424;8.420;2022-12-31T18:31:35;17.40;98.70
20856;DHT22;63058;49.424;8.420;2022-12-31T18:34:00;17.40;99.10
20856;DHT22;63058;49.424;8.420;2022-12-31T18:36:27;17.30;99.10
